Kathmandu, Nepal
Current Conditions -  °F | °C
As of 9:50 AM on Sunday 26 Oct 2014 (Local Time) from VNKT Reporting Station
Few Clouds Few Clouds  
Wind Chill: 21°   Ceiling: Unl
Heat Index: 21°   Visibility: 6mi
Dew Point: 11°   Wind: 3mph
Humidity: 53%   Direction: 170°S
Pressure: 30.24"   Gusts: NA
Location:  27.71°N, 85.31°E
Report Text: VNKT 260450Z 17003KT 9999 FEW020 21/11 Q1024 NOSIG
Loading
Personal Weather Stations






























Interactive Weather Map
Tropical Storm Tracking
New forecast layout! Learn more

10-Day Weather Forecast

Advertisements
Track Severe Weather on mobile